Time;durP1;ratioP1;P1;durP2;ratioP2;P2;SDS_P1;SDS_P2;PMS_P1;PMS_P2;Temp;Humidity;BMP_temperature;BMP_pressure;BME280_temperature;BME280_humidity;BME280_pressure;Samples;Min_cycle;Max_cycle;Signal;HPM_P1;HPM_P2
2022/01/07 00:00:47;;;;;;;13.18;5.15;;;;;;;-7.52;100.00;93196.78;2098480;28;20725;-82
2022/01/07 00:01:48;;;;;;;10.85;5.40;;;;;;;-7.39;100.00;93206.31;2097430;28;20454;-82
2022/01/07 00:02:57;;;;;;;9.77;4.70;;;;;;;-7.46;100.00;93200.00;2073687;28;20021;-82
2022/01/07 00:04:05;;;;;;;9.13;5.65;;;;;;;-7.45;100.00;93196.38;2080891;28;20022;-82
2022/01/07 00:05:08;;;;;;;7.95;4.63;;;;;;;-7.50;100.00;93199.09;2090050;28;20561;-82
2022/01/07 00:06:15;;;;;;;12.38;4.38;;;;;;;-7.50;100.00;93196.50;2090724;28;20051;-82
2022/01/07 00:07:19;;;;;;;9.00;4.55;;;;;;;-7.53;100.00;93187.47;2083104;28;20037;-82
2022/01/07 00:08:23;;;;;;;12.10;5.10;;;;;;;-7.52;100.00;93186.41;2082798;28;20032;-82
2022/01/07 00:09:24;;;;;;;9.18;5.00;;;;;;;-7.41;100.00;93192.09;2082429;28;20463;-82
2022/01/07 00:10:25;;;;;;;12.25;5.28;;;;;;;-7.40;100.00;93186.59;2090006;28;20982;-81
2022/01/07 00:11:30;;;;;;;12.00;5.70;;;;;;;-7.49;100.00;93180.63;2085409;28;20053;-82
2022/01/07 00:12:32;;;;;;;14.18;5.18;;;;;;;-7.53;100.00;93176.34;2098341;28;20430;-82
2022/01/07 00:13:33;;;;;;;8.63;4.95;;;;;;;-7.48;100.00;93176.97;2097152;28;20029;-81
2022/01/07 00:14:39;;;;;;;10.48;5.28;;;;;;;-7.49;100.00;93180.63;2089959;28;20547;-81
2022/01/07 00:15:40;;;;;;;8.25;4.45;;;;;;;-7.35;100.00;93181.28;2091315;28;20052;-81
2022/01/07 00:16:41;;;;;;;11.90;4.95;;;;;;;-7.37;100.00;93174.88;2089654;28;20390;-82
2022/01/07 00:17:44;;;;;;;10.30;4.65;;;;;;;-7.40;100.00;93183.25;2098269;28;20107;-81
2022/01/07 00:18:44;;;;;;;12.93;4.82;;;;;;;-7.14;100.00;93181.47;2105650;28;20511;-81
2022/01/07 00:19:47;;;;;;;11.00;4.40;;;;;;;-7.06;100.00;93177.38;2090682;28;20136;-82
2022/01/07 00:20:48;;;;;;;8.43;4.70;;;;;;;-7.26;100.00;93177.94;2090058;28;20044;-82
2022/01/07 00:21:50;;;;;;;6.38;4.90;;;;;;;-7.43;100.00;93179.41;2097194;28;21030;-81
2022/01/07 00:22:52;;;;;;;7.57;4.22;;;;;;;-7.48;100.00;93179.56;2106607;28;20049;-82
2022/01/07 00:23:53;;;;;;;9.68;4.93;;;;;;;-7.52;100.00;93177.88;2097976;28;20458;-81
2022/01/07 00:24:54;;;;;;;12.98;5.07;;;;;;;-7.54;100.00;93180.78;2087368;28;20934;-82
2022/01/07 00:25:54;;;;;;;9.18;4.47;;;;;;;-7.42;100.00;93173.19;2089839;28;20473;-82
2022/01/07 00:26:55;;;;;;;8.32;4.50;;;;;;;-7.51;100.00;93171.59;2081480;28;20485;-81
2022/01/07 00:27:56;;;;;;;8.23;4.60;;;;;;;-7.48;100.00;93171.78;2081435;28;20632;-81
2022/01/07 00:28:57;;;;;;;13.30;4.45;;;;;;;-7.62;100.00;93171.88;2087195;28;20021;-82
2022/01/07 00:29:59;;;;;;;9.50;4.55;;;;;;;-7.61;100.00;93167.47;2089760;28;20017;-81
2022/01/07 00:31:00;;;;;;;10.65;5.03;;;;;;;-7.52;100.00;93181.22;2098157;28;20437;-82
2022/01/07 00:32:02;;;;;;;10.30;4.97;;;;;;;-7.50;100.00;93167.97;2089708;28;20025;-82
2022/01/07 00:33:05;;;;;;;10.18;4.90;;;;;;;-7.53;100.00;93164.13;2087952;28;20029;-81
2022/01/07 00:34:06;;;;;;;11.65;5.03;;;;;;;-7.52;100.00;93172.69;2078726;28;20492;-81
2022/01/07 00:35:08;;;;;;;10.07;4.97;;;;;;;-7.65;100.00;93171.72;2089060;28;20451;-82
2022/01/07 00:36:10;;;;;;;11.85;4.70;;;;;;;-7.52;100.00;93170.06;2097832;28;20035;-85
2022/01/07 00:37:12;;;;;;;10.45;4.72;;;;;;;-7.37;100.00;93169.69;2081621;28;20063;-82
2022/01/07 00:38:13;;;;;;;9.27;4.68;;;;;;;-7.52;100.00;93167.47;2089969;28;20469;-82
2022/01/07 00:39:14;;;;;;;8.77;4.45;;;;;;;-7.51;100.00;93171.59;2097491;28;20839;-81
2022/01/07 00:40:21;;;;;;;12.65;5.10;;;;;;;-7.61;100.00;93172.66;2092733;28;20447;-82
2022/01/07 00:41:22;;;;;;;11.45;5.35;;;;;;;-7.53;100.00;93174.50;2084926;28;20466;-82
2022/01/07 00:42:26;;;;;;;10.68;4.53;;;;;;;-7.35;100.00;93176.06;2088087;28;20435;-82
2022/01/07 00:43:27;;;;;;;11.27;4.25;;;;;;;-7.09;100.00;93177.97;2092929;28;20025;-81
2022/01/07 00:44:28;;;;;;;6.43;3.88;;;;;;;-7.23;100.00;93179.94;2095625;28;20438;-82
2022/01/07 00:45:29;;;;;;;12.80;4.43;;;;;;;-7.39;100.00;93187.38;2080020;28;20446;-81
2022/01/07 00:46:32;;;;;;;7.20;4.63;;;;;;;-7.36;100.00;93177.16;2089766;28;20443;-82
2022/01/07 00:47:33;;;;;;;8.07;4.18;;;;;;;-7.48;100.00;93181.38;2097816;28;20081;-82
2022/01/07 00:48:35;;;;;;;9.18;3.80;;;;;;;-7.38;100.00;93178.50;2086638;28;20565;-81
2022/01/07 00:49:35;;;;;;;7.65;4.15;;;;;;;-7.36;100.00;93176.38;2081485;28;20868;-82
2022/01/07 00:50:37;;;;;;;8.70;3.67;;;;;;;-7.54;100.00;93180.78;2098064;28;20529;-83
2022/01/07 00:51:37;;;;;;;9.55;3.92;;;;;;;-7.54;100.00;93178.19;2084997;28;20032;-83
2022/01/07 00:52:41;;;;;;;8.07;3.60;;;;;;;-7.52;100.00;93175.28;2089661;28;20463;-81
2022/01/07 00:53:42;;;;;;;10.18;3.55;;;;;;;-7.57;100.00;93178.00;2088881;28;20023;-81
2022/01/07 00:54:43;;;;;;;10.90;3.72;;;;;;;-7.56;100.00;93180.28;2081306;28;20444;-82
2022/01/07 00:55:44;;;;;;;10.35;3.28;;;;;;;-7.56;100.00;93171.75;2089782;28;20713;-82
2022/01/07 00:56:46;;;;;;;7.50;2.78;;;;;;;-7.30;100.00;93175.16;2089550;28;20662;-82
2022/01/07 00:57:47;;;;;;;12.15;3.53;;;;;;;-7.47;100.00;93177.72;2094438;28;20497;-81
2022/01/07 00:58:48;;;;;;;10.25;3.10;;;;;;;-7.48;100.00;93181.38;2097866;28;20450;-82
2022/01/07 00:59:51;;;;;;;6.30;3.13;;;;;;;-7.28;100.00;93169.69;2097947;28;20980;-82
2022/01/07 01:00:52;;;;;;;6.93;2.95;;;;;;;-7.22;100.00;93174.44;2089775;28;20021;-81
2022/01/07 01:01:53;;;;;;;6.15;2.83;;;;;;;-7.23;100.00;93166.94;2089628;28;20539;-82
2022/01/07 01:02:55;;;;;;;6.50;2.92;;;;;;;-7.40;100.00;93170.28;2097660;28;20408;-82
2022/01/07 01:03:56;;;;;;;7.10;2.60;;;;;;;-7.33;100.00;93168.00;2089744;28;20546;-82
2022/01/07 01:04:57;;;;;;;8.10;3.30;;;;;;;-7.34;100.00;93176.84;2091309;28;20693;-80
2022/01/07 01:05:58;;;;;;;6.38;2.88;;;;;;;-7.36;100.00;93166.75;2095808;28;20475;-82
2022/01/07 01:06:59;;;;;;;6.93;2.88;;;;;;;-7.25;100.00;93171.66;2087733;28;20025;-82
2022/01/07 01:08:00;;;;;;;10.95;3.03;;;;;;;-6.99;100.00;93163.91;2087769;28;20443;-82
2022/01/07 01:09:01;;;;;;;7.40;2.83;;;;;;;-7.02;100.00;93165.31;2082675;28;20531;-81
2022/01/07 01:10:08;;;;;;;4.47;2.42;;;;;;;-7.15;100.00;93161.00;2081469;28;20021;-81
2022/01/07 01:11:09;;;;;;;4.65;2.25;;;;;;;-7.18;100.00;93161.59;2097846;28;20439;-82
2022/01/07 01:12:11;;;;;;;4.50;2.20;;;;;;;-7.18;100.00;93159.78;2089643;28;21000;-82
2022/01/07 01:13:12;;;;;;;8.15;2.83;;;;;;;-7.04;100.00;93158.88;2097898;28;20060;-82
2022/01/07 01:14:13;;;;;;;4.82;2.75;;;;;;;-7.15;100.00;93155.81;2106153;28;20806;-82
2022/01/07 01:15:22;;;;;;;9.85;2.75;;;;;;;-7.03;100.00;93153.34;2090031;28;20467;-82
2022/01/07 01:16:25;;;;;;;8.05;3.25;;;;;;;-6.98;100.00;93147.25;2093414;28;20016;-82
2022/01/07 01:17:26;;;;;;;7.68;2.10;;;;;;;-7.09;100.00;93157.19;2099784;28;20515;-82
2022/01/07 01:18:27;;;;;;;6.70;2.40;;;;;;;-6.98;100.00;93150.63;2104040;28;20455;-81
2022/01/07 01:19:28;;;;;;;4.00;2.22;;;;;;;-7.03;100.00;93163.75;2087309;28;21029;-82
2022/01/07 01:20:31;;;;;;;7.25;3.35;;;;;;;-7.11;100.00;93148.94;2083547;28;20051;-82
2022/01/07 01:21:35;;;;;;;6.22;2.80;;;;;;;-7.11;100.00;93148.94;2092110;28;20451;-82
2022/01/07 01:22:36;;;;;;;6.80;3.05;;;;;;;-7.07;100.00;93149.06;2081961;28;20448;-82
2022/01/07 01:23:38;;;;;;;7.75;2.78;;;;;;;-7.17;100.00;93140.50;2083669;28;20448;-81
2022/01/07 01:24:39;;;;;;;6.78;2.80;;;;;;;-7.06;100.00;93141.00;2089745;28;20955;-82
2022/01/07 01:25:41;;;;;;;7.55;3.05;;;;;;;-7.11;100.00;93138.56;2097869;28;21013;-82
2022/01/07 01:26:45;;;;;;;4.57;2.95;;;;;;;-7.13;100.00;93153.66;2097688;28;20447;-81
2022/01/07 01:27:46;;;;;;;5.03;2.83;;;;;;;-7.23;100.00;93149.53;2101897;28;20473;-82
2022/01/07 01:28:49;;;;;;;8.20;3.72;;;;;;;-7.07;100.00;93149.06;2102244;28;20453;-81
2022/01/07 01:29:50;;;;;;;5.05;2.80;;;;;;;-6.97;100.00;93148.81;2100978;28;20994;-81
2022/01/07 01:30:51;;;;;;;8.82;3.50;;;;;;;-6.96;100.00;93148.47;2097571;28;20446;-81
2022/01/07 01:31:53;;;;;;;8.15;3.38;;;;;;;-6.97;100.00;93149.56;2094583;28;20470;-81
2022/01/07 01:32:54;;;;;;;10.68;3.63;;;;;;;-6.95;100.00;93151.84;2092193;28;20482;-82
2022/01/07 01:34:04;;;;;;;9.75;2.80;;;;;;;-7.00;100.00;93146.81;2103223;28;20494;-82
2022/01/07 01:35:07;;;;;;;8.18;2.78;;;;;;;-7.07;100.00;93154.28;2106634;28;20469;-82
2022/01/07 01:36:09;;;;;;;8.73;3.65;;;;;;;-7.01;100.00;93150.47;2096726;28;20036;-81
2022/01/07 01:37:10;;;;;;;11.32;3.22;;;;;;;-7.14;100.00;93160.69;2102622;28;20438;-82
2022/01/07 01:38:11;;;;;;;11.85;3.42;;;;;;;-7.07;100.00;93156.88;2101675;28;20528;-82
2022/01/07 01:39:12;;;;;;;6.70;3.55;;;;;;;-7.12;100.00;93153.34;2088783;28;20021;-81
2022/01/07 01:40:15;;;;;;;6.88;3.97;;;;;;;-7.04;100.00;93158.88;2089478;28;20443;-82
2022/01/07 01:41:16;;;;;;;7.25;3.80;;;;;;;-7.08;100.00;93153.50;2085776;28;20880;-81
2022/01/07 01:42:17;;;;;;;10.55;4.20;;;;;;;-7.04;100.00;93154.44;2097436;28;20576;-81
2022/01/07 01:43:18;;;;;;;10.43;4.30;;;;;;;-7.05;100.00;93149.56;2098605;28;20020;-82
2022/01/07 01:44:19;;;;;;;8.85;3.83;;;;;;;-7.06;100.00;93148.78;2105424;28;20909;-83
2022/01/07 01:45:21;;;;;;;7.32;3.40;;;;;;;-6.92;100.00;93152.00;2089270;28;20031;-82
2022/01/07 01:46:22;;;;;;;7.72;3.97;;;;;;;-6.88;100.00;93149.56;2088495;28;20696;-82
2022/01/07 01:47:23;;;;;;;6.75;3.88;;;;;;;-6.93;100.00;93154.91;2089201;28;20442;-81
2022/01/07 01:48:24;;;;;;;7.93;3.55;;;;;;;-7.01;100.00;93150.47;2082383;28;20459;-82
2022/01/07 01:49:25;;;;;;;10.80;4.07;;;;;;;-6.76;100.00;93146.34;2089036;28;20025;-82
2022/01/07 01:50:26;;;;;;;7.43;3.17;;;;;;;-6.81;100.00;93144.66;2090917;28;20454;-82
2022/01/07 01:51:27;;;;;;;5.95;3.63;;;;;;;-6.79;100.00;93139.94;2097616;28;20028;-84
2022/01/07 01:52:28;;;;;;;6.03;3.55;;;;;;;-6.92;100.00;93143.44;2097272;28;20450;-83
2022/01/07 01:53:30;;;;;;;9.65;3.85;;;;;;;-6.90;100.00;93133.50;2091129;28;20104;-84
2022/01/07 01:54:32;;;;;;;7.50;3.70;;;;;;;-6.96;100.00;93132.13;2105661;28;20480;-81
2022/01/07 01:55:33;;;;;;;9.05;3.53;;;;;;;-6.96;100.00;93125.09;2097780;28;20447;-83
2022/01/07 01:56:34;;;;;;;8.52;3.53;;;;;;;-6.87;100.00;93123.28;2097503;28;21346;-83
2022/01/07 01:57:35;;;;;;;9.13;3.85;;;;;;;-6.92;100.00;93123.44;2089239;28;20460;-82
2022/01/07 01:58:36;;;;;;;8.02;3.97;;;;;;;-6.89;100.00;93120.22;2089193;28;20450;-82
2022/01/07 01:59:38;;;;;;;11.07;3.38;;;;;;;-6.68;100.00;93122.19;2089121;28;20782;-82
2022/01/07 02:00:39;;;;;;;8.88;3.70;;;;;;;-6.77;100.00;93124.78;2097616;28;20443;-82
2022/01/07 02:01:40;;;;;;;7.93;4.20;;;;;;;-6.78;100.00;93119.91;2105788;28;20454;-82
2022/01/07 02:02:43;;;;;;;9.68;4.65;;;;;;;-6.64;100.00;93113.47;2097556;28;20473;-83
2022/01/07 02:03:43;;;;;;;10.32;4.80;;;;;;;-6.56;100.00;93124.16;2097665;28;20873;-82
2022/01/07 02:04:44;;;;;;;10.15;4.18;;;;;;;-6.63;100.00;93122.81;2105839;28;20492;-81
2022/01/07 02:05:46;;;;;;;12.68;4.22;;;;;;;-6.52;100.00;93119.88;2105650;28;20042;-83
2022/01/07 02:06:47;;;;;;;8.88;4.32;;;;;;;-6.49;100.00;93120.03;2097163;28;20432;-82
2022/01/07 02:07:48;;;;;;;9.75;4.32;;;;;;;-6.27;100.00;93116.47;2101880;28;20989;-81
2022/01/07 02:10:07;;;;;;;;;;;;;;;-6.19;100.00;93114.88;2148644;27;20118;-83
2022/01/07 02:11:08;;;;;;;10.63;3.85;;;;;;;-6.23;100.00;93104.38;2122462;27;19955;-83
2022/01/07 02:12:09;;;;;;;8.05;3.90;;;;;;;-6.21;100.00;93115.22;2120505;27;20522;-82
2022/01/07 02:13:10;;;;;;;10.85;4.15;;;;;;;-6.13;100.00;93111.81;2122035;27;20475;-82
2022/01/07 02:14:14;;;;;;;9.68;4.22;;;;;;;-6.07;100.00;93119.44;2128679;27;20444;-82
2022/01/07 02:15:17;;;;;;;8.35;4.60;;;;;;;-5.95;100.00;93116.97;2130451;27;20027;-81
2022/01/07 02:16:17;;;;;;;8.73;4.05;;;;;;;-6.03;100.00;93118.53;2129428;27;20440;-82
2022/01/07 02:17:20;;;;;;;8.30;3.72;;;;;;;-5.98;100.00;93118.34;2117862;27;20534;-82
2022/01/07 02:18:21;;;;;;;11.05;4.38;;;;;;;-6.14;100.00;93115.50;2117208;27;20036;-83
2022/01/07 02:19:22;;;;;;;8.77;4.30;;;;;;;-6.19;100.00;93118.28;2115940;28;20483;-81
2022/01/07 02:20:25;;;;;;;9.98;4.50;;;;;;;-6.16;100.00;93119.47;2108553;28;20522;-81
2022/01/07 02:21:26;;;;;;;11.20;3.88;;;;;;;-6.11;100.00;93116.72;2109252;28;20050;-82
2022/01/07 02:22:27;;;;;;;8.73;4.05;;;;;;;-6.03;100.00;93120.38;2117042;28;20461;-81
2022/01/07 02:23:28;;;;;;;11.00;4.05;;;;;;;-6.13;100.00;93119.63;2113950;28;20051;-82
2022/01/07 02:24:29;;;;;;;13.13;3.88;;;;;;;-6.19;100.00;93120.09;2110456;28;20545;-82
2022/01/07 02:25:40;;;;;;;5.45;3.47;;;;;;;-6.07;100.00;93117.63;2110629;28;20024;-80
2022/01/07 02:26:41;;;;;;;10.63;3.55;;;;;;;-6.21;100.00;93123.00;2110544;27;20472;-82
2022/01/07 02:27:44;;;;;;;9.07;3.67;;;;;;;-6.23;100.00;93122.56;2117148;27;20441;-81
2022/01/07 02:28:46;;;;;;;6.53;3.70;;;;;;;-6.05;100.00;93120.69;2116804;28;21281;-80
2022/01/07 02:29:49;;;;;;;6.82;3.53;;;;;;;-6.01;100.00;93126.00;2105313;27;20501;-82
2022/01/07 02:30:50;;;;;;;7.47;3.88;;;;;;;-6.14;100.00;93117.34;2129371;27;20182;-81
2022/01/07 02:31:51;;;;;;;6.80;3.22;;;;;;;-6.13;100.00;93119.63;2126099;27;20380;-82
2022/01/07 02:32:53;;;;;;;8.57;3.67;;;;;;;-6.16;100.00;93119.47;2116048;27;20438;-82
2022/01/07 02:33:56;;;;;;;8.05;3.63;;;;;;;-6.16;100.00;93114.28;2112934;28;20050;-82
2022/01/07 02:34:58;;;;;;;6.53;3.53;;;;;;;-6.09;100.00;93117.94;2104704;28;20866;-82
2022/01/07 02:36:06;;;;;;;5.15;3.15;;;;;;;-6.05;100.00;93112.88;2096276;28;20021;-82
2022/01/07 02:37:07;;;;;;;7.18;3.67;;;;;;;-6.08;100.00;93108.28;2106621;28;20111;-82
2022/01/07 02:38:08;;;;;;;6.80;3.20;;;;;;;-6.15;100.00;93108.75;2111904;27;20035;-82
2022/01/07 02:39:09;;;;;;;6.28;3.28;;;;;;;-6.22;100.00;93111.09;2122070;27;20023;-82
2022/01/07 02:40:12;;;;;;;7.28;3.30;;;;;;;-6.26;100.00;93114.63;2111285;27;20821;-83
2022/01/07 02:41:13;;;;;;;7.18;3.28;;;;;;;-6.28;100.00;93108.94;2120809;28;20023;-82
2022/01/07 02:42:21;;;;;;;5.28;3.30;;;;;;;-6.34;100.00;93110.97;2104324;28;20047;-82
2022/01/07 02:43:23;;;;;;;6.60;3.33;;;;;;;-6.28;100.00;93114.16;2115791;27;20031;-82
2022/01/07 02:44:25;;;;;;;11.93;3.30;;;;;;;-6.30;100.00;93113.72;2120000;28;20027;-82
2022/01/07 02:45:30;;;;;;;5.85;3.17;;;;;;;-6.13;100.00;93103.25;2112789;27;20426;-82
2022/01/07 02:46:36;;;;;;;5.13;3.33;;;;;;;-6.23;100.00;93101.75;2113197;28;20030;-81
2022/01/07 02:47:57;;;;;;;4.70;3.00;;;;;;;-6.24;100.00;93109.88;2113991;27;20062;-82
2022/01/07 02:49:06;;;;;;;6.65;3.13;;;;;;;-6.06;100.00;93103.53;2130350;27;20066;-81
2022/01/07 02:50:07;;;;;;;6.93;3.15;;;;;;;-6.05;100.00;93112.13;2122333;27;20463;-81
2022/01/07 02:51:08;;;;;;;6.22;2.90;;;;;;;-6.12;100.00;93104.78;2113713;28;20120;-82
2022/01/07 02:52:09;;;;;;;7.75;3.42;;;;;;;-6.08;100.00;93105.69;2120172;27;20026;-82
2022/01/07 02:53:11;;;;;;;7.55;3.22;;;;;;;-6.01;100.00;93102.59;2112771;28;20023;-82
2022/01/07 02:54:13;;;;;;;10.32;3.95;;;;;;;-5.93;100.00;93101.78;2105660;28;20154;-82
2022/01/07 02:55:14;;;;;;;6.70;3.50;;;;;;;-5.96;100.00;93103.19;2104493;28;20698;-82
2022/01/07 02:56:16;;;;;;;6.68;3.80;;;;;;;-5.71;100.00;93093.69;2112677;27;20038;-82
2022/01/07 02:57:17;;;;;;;6.10;3.67;;;;;;;-5.91;100.00;93104.84;2113081;27;20031;-82
2022/01/07 02:58:18;;;;;;;7.28;3.63;;;;;;;-5.97;100.00;93111.28;2121055;27;20422;-82
2022/01/07 02:59:19;;;;;;;5.47;3.38;;;;;;;-6.14;100.00;93109.53;2121071;27;20582;-82
2022/01/07 03:00:24;;;;;;;7.07;3.03;;;;;;;-6.15;100.00;93105.41;2120463;28;20130;-82
2022/01/07 03:01:26;;;;;;;6.57;3.47;;;;;;;-6.17;100.00;93110.16;2113158;28;20110;-82
2022/01/07 03:02:29;;;;;;;3.63;2.55;;;;;;;-6.14;100.00;93112.16;2114329;27;20115;-82
2022/01/07 03:03:31;;;;;;;8.02;3.38;;;;;;;-6.10;100.00;93110.44;2120231;27;20023;-81
2022/01/07 03:04:36;;;;;;;4.80;3.13;;;;;;;-6.21;100.00;93110.00;2117422;28;20034;-82
2022/01/07 03:05:41;;;;;;;10.60;3.50;;;;;;;-6.26;100.00;93107.59;2107817;28;20020;-81
2022/01/07 03:06:51;;;;;;;5.93;2.80;;;;;;;-6.22;100.00;93111.09;2097430;28;20078;-82
2022/01/07 03:07:53;;;;;;;;;;;;;;;-6.37;100.00;93108.97;2107266;28;20469;-82
2022/01/07 03:08:55;;;;;;;8.25;3.13;;;;;;;-6.31;100.00;93107.75;2126579;27;19915;-82
2022/01/07 03:09:59;;;;;;;7.03;3.22;;;;;;;-6.39;100.00;93109.28;2120652;28;20477;-82
2022/01/07 03:11:00;;;;;;;5.10;2.72;;;;;;;-6.42;100.00;93103.94;2113512;27;20027;-81
2022/01/07 03:12:01;;;;;;;4.07;2.72;;;;;;;-6.36;100.00;93107.91;2121002;27;20027;-82
2022/01/07 03:13:04;;;;;;;4.60;3.08;;;;;;;-6.35;100.00;93106.84;2121124;27;20944;-82
2022/01/07 03:14:05;;;;;;;5.72;2.95;;;;;;;-6.37;100.00;93109.72;2112727;28;20441;-81
2022/01/07 03:15:07;;;;;;;8.40;3.17;;;;;;;-6.28;100.00;93116.75;2103958;28;20097;-82
2022/01/07 03:16:08;;;;;;;5.57;3.33;;;;;;;-6.20;100.00;93121.16;2112790;27;20057;-82
2022/01/07 03:17:09;;;;;;;3.85;3.00;;;;;;;-6.10;100.00;93120.84;2113283;28;21188;-81
2022/01/07 03:18:10;;;;;;;7.72;3.13;;;;;;;-6.05;100.00;93117.31;2112770;28;20114;-82
2022/01/07 03:19:11;;;;;;;7.25;3.42;;;;;;;-6.15;100.00;93111.34;2103837;28;20637;-82
2022/01/07 03:20:17;;;;;;;10.27;3.55;;;;;;;-5.94;100.00;93113.28;2095915;28;20055;-83
2022/01/07 03:21:18;;;;;;;5.53;3.35;;;;;;;-6.05;100.00;93118.09;2093362;27;20366;-81
2022/01/07 03:22:19;;;;;;;9.98;3.28;;;;;;;-5.95;100.00;93115.13;2114546;28;20468;-81
2022/01/07 03:23:21;;;;;;;6.18;3.45;;;;;;;-5.89;100.00;93118.28;2098915;28;20047;-81
2022/01/07 03:24:22;;;;;;;6.28;3.05;;;;;;;-5.88;100.00;93117.22;2107825;28;20027;-82
2022/01/07 03:25:23;;;;;;;6.18;3.42;;;;;;;-5.89;100.00;93115.69;2114009;28;20953;-82
2022/01/07 03:26:24;;;;;;;7.40;3.35;;;;;;;-5.67;100.00;93115.44;2108968;27;20052;-82
2022/01/07 03:27:33;;;;;;;6.75;3.08;;;;;;;-5.87;100.00;93113.53;2113458;28;20077;-83
2022/01/07 03:28:35;;;;;;;5.70;3.42;;;;;;;-5.85;100.00;93116.59;2110674;27;20028;-82
2022/01/07 03:29:39;;;;;;;7.35;3.45;;;;;;;-6.06;100.00;93119.13;2112220;28;20032;-82
2022/01/07 03:30:40;;;;;;;7.00;3.42;;;;;;;-6.15;100.00;93121.00;2106411;28;20453;-82
2022/01/07 03:31:41;;;;;;;9.52;4.20;;;;;;;-6.24;100.00;93122.88;2106694;28;20023;-82
2022/01/07 03:32:43;;;;;;;8.52;3.38;;;;;;;-6.30;100.00;93121.50;2098375;28;20854;-82
2022/01/07 03:33:44;;;;;;;7.55;3.47;;;;;;;-6.07;100.00;93122.06;2089867;28;20453;-82
2022/01/07 03:34:45;;;;;;;7.35;3.50;;;;;;;-6.27;100.00;93119.06;2094351;28;20995;-82
2022/01/07 03:35:46;;;;;;;9.38;3.45;;;;;;;-6.29;100.00;93118.59;2090047;28;20056;-82
2022/01/07 03:36:47;;;;;;;9.75;3.45;;;;;;;-6.28;100.00;93117.50;2094475;28;20051;-82
2022/01/07 03:37:52;;;;;;;10.70;3.80;;;;;;;-6.26;100.00;93109.41;2102240;28;20415;-82
2022/01/07 03:39:01;;;;;;;5.72;3.05;;;;;;;-6.09;100.00;93115.34;2104132;28;21245;-82
2022/01/07 03:40:09;;;;;;;7.97;3.75;;;;;;;-6.11;100.00;93114.88;2100674;28;20021;-81
2022/01/07 03:41:12;;;;;;;5.20;3.30;;;;;;;-6.02;100.00;93125.25;2108774;27;20024;-82
2022/01/07 03:42:15;;;;;;;7.60;3.83;;;;;;;-6.10;100.00;93120.84;2115085;28;20448;-82
2022/01/07 03:43:20;;;;;;;10.98;3.60;;;;;;;-6.07;100.00;93111.66;2090505;28;20466;-82
2022/01/07 03:44:27;;;;;;;6.32;3.80;;;;;;;-6.07;100.00;93116.84;2098647;28;20435;-81
2022/01/07 03:45:33;;;;;;;10.02;3.92;;;;;;;-6.16;100.00;93115.03;2100686;28;20502;-82
2022/01/07 03:46:34;;;;;;;5.90;3.40;;;;;;;-6.22;100.00;93113.69;2099056;28;20028;-82
2022/01/07 03:47:37;;;;;;;7.07;3.45;;;;;;;-6.34;100.00;93111.72;2101038;28;20454;-82
2022/01/07 03:48:45;;;;;;;7.85;3.67;;;;;;;-6.14;100.00;93112.16;2106972;27;20087;-82
2022/01/07 03:49:47;;;;;;;6.18;4.10;;;;;;;-6.30;100.00;93104.06;2110248;28;20446;-81
2022/01/07 03:50:48;;;;;;;6.70;3.40;;;;;;;-6.03;100.00;93105.50;2099063;28;20089;-82
2022/01/07 03:51:48;;;;;;;5.13;3.40;;;;;;;-6.04;100.00;93106.59;2106686;28;20081;-82
2022/01/07 03:52:50;;;;;;;5.60;3.45;;;;;;;-6.01;100.00;93102.59;2111622;28;20517;-82
2022/01/07 03:53:51;;;;;;;8.00;3.50;;;;;;;-6.13;100.00;93104.03;2113815;27;20476;-82
2022/01/07 03:54:53;;;;;;;9.93;3.63;;;;;;;-5.96;100.00;93100.59;2094988;28;20447;-81
2022/01/07 03:55:58;;;;;;;4.97;3.17;;;;;;;-6.03;100.00;93108.13;2095648;28;20455;-82
2022/01/07 03:56:59;;;;;;;6.90;3.20;;;;;;;-6.07;100.00;93106.44;2094916;28;20086;-82
2022/01/07 03:58:00;;;;;;;8.85;3.47;;;;;;;-6.09;100.00;93109.38;2106645;28;20070;-82
2022/01/07 03:59:03;;;;;;;9.00;3.70;;;;;;;-6.12;100.00;93104.78;2103330;28;20032;-81
2022/01/07 04:00:08;;;;;;;8.30;3.70;;;;;;;-6.15;100.00;93103.56;2100184;28;20512;-82
2022/01/07 04:01:09;;;;;;;7.68;3.63;;;;;;;-6.07;100.00;93103.84;2098747;28;20435;-83
2022/01/07 04:02:11;;;;;;;6.20;3.63;;;;;;;-6.08;100.00;93100.47;2114243;28;20418;-82
2022/01/07 04:03:15;;;;;;;7.68;3.92;;;;;;;-6.07;100.00;93103.84;2107211;28;20464;-83
2022/01/07 04:04:15;;;;;;;5.13;3.40;;;;;;;-6.25;100.00;93103.91;2098494;28;20778;-84
2022/01/07 04:05:20;;;;;;;8.75;3.33;;;;;;;-6.29;100.00;93099.63;2106753;28;20085;-83
2022/01/07 04:06:25;;;;;;;5.15;3.30;;;;;;;-6.13;100.00;93106.63;2106002;28;20020;-82
2022/01/07 04:07:26;;;;;;;4.65;3.42;;;;;;;-6.16;100.00;93094.22;2090104;28;20487;-83
2022/01/07 04:08:27;;;;;;;8.18;3.08;;;;;;;-6.05;100.00;93099.09;2081435;28;20439;-83
2022/01/07 04:09:28;;;;;;;8.13;3.92;;;;;;;-5.93;100.00;93101.78;2093255;28;20041;-83
2022/01/07 04:10:29;;;;;;;7.22;3.92;;;;;;;-5.84;100.00;93099.88;2106334;28;20058;-82
2022/01/07 04:11:30;;;;;;;5.15;3.13;;;;;;;-5.93;100.00;93107.00;2098179;28;20048;-83
2022/01/07 04:12:31;;;;;;;12.25;3.50;;;;;;;-5.90;100.00;93106.34;2104107;28;20019;-83
2022/01/07 04:13:32;;;;;;;7.93;3.15;;;;;;;-5.87;100.00;93105.75;2102935;27;20111;-82
2022/01/07 04:14:33;;;;;;;5.28;3.08;;;;;;;-5.86;100.00;93107.25;2112437;28;20048;-82
2022/01/07 04:15:35;;;;;;;5.88;3.40;;;;;;;-5.97;100.00;93108.69;2098218;28;20135;-83
2022/01/07 04:16:35;;;;;;;5.78;3.05;;;;;;;-5.80;100.00;93108.59;2101137;28;20776;-83
2022/01/07 04:17:46;;;;;;;6.93;3.28;;;;;;;-5.88;100.00;93107.59;2110348;28;20120;-83
2022/01/07 04:18:47;;;;;;;4.65;2.90;;;;;;;-5.95;100.00;93102.13;2096315;28;20017;-82
2022/01/07 04:19:53;;;;;;;9.30;3.17;;;;;;;-5.81;100.00;93104.47;2094165;28;20119;-82
2022/01/07 04:20:54;;;;;;;8.05;3.08;;;;;;;-5.79;100.00;93098.94;2099443;28;20398;-83
2022/01/07 04:21:55;;;;;;;6.05;3.05;;;;;;;-5.85;100.00;93106.19;2106206;28;20024;-83
2022/01/07 04:22:56;;;;;;;4.85;3.03;;;;;;;-5.95;100.00;93107.31;2106443;28;20438;-83
2022/01/07 04:23:57;;;;;;;7.25;2.88;;;;;;;-5.93;100.00;93102.56;2101104;28;20113;-83
2022/01/07 04:25:00;;;;;;;5.35;3.53;;;;;;;-5.92;100.00;93113.75;2103508;28;20016;-82
2022/01/07 04:26:02;;;;;;;5.78;3.08;;;;;;;-5.92;100.00;93105.94;2106885;28;20028;-82
2022/01/07 04:27:03;;;;;;;6.25;2.88;;;;;;;-5.97;100.00;93100.88;2106207;28;20055;-82
2022/01/07 04:28:07;;;;;;;7.35;3.38;;;;;;;-5.94;100.00;93097.69;2104270;28;21014;-82
2022/01/07 04:29:08;;;;;;;5.35;2.60;;;;;;;-5.93;100.00;93099.94;2090158;28;20490;-82
2022/01/07 04:30:12;;;;;;;3.72;2.83;;;;;;;-5.98;100.00;93104.56;2098011;28;20103;-83
2022/01/07 04:31:14;;;;;;;4.07;2.67;;;;;;;-5.78;100.00;93098.66;2096427;28;20405;-83
2022/01/07 04:32:15;;;;;;;9.35;3.33;;;;;;;-5.84;100.00;93100.69;2106809;28;20020;-83
2022/01/07 04:33:24;;;;;;;7.55;2.85;;;;;;;-5.90;100.00;93099.31;2110097;28;20042;-83
2022/01/07 04:34:25;;;;;;;4.03;2.45;;;;;;;-5.96;100.00;93092.03;2111265;28;20023;-83
2022/01/07 04:35:26;;;;;;;6.10;3.17;;;;;;;-5.92;100.00;93092.94;2092602;28;20029;-83
2022/01/07 04:36:27;;;;;;;4.25;2.80;;;;;;;-5.94;100.00;93100.28;2103288;28;20027;-82
2022/01/07 04:37:28;;;;;;;15.20;10.57;;;;;;;-5.86;100.00;93089.03;2106219;28;20020;-83
2022/01/07 04:38:32;;;;;;;12.82;10.85;;;;;;;-5.76;100.00;93098.31;2114751;27;20057;-83
2022/01/07 04:39:32;;;;;;;4.97;4.20;;;;;;;-5.84;100.00;93094.69;2108767;28;20034;-83
2022/01/07 04:40:50;;;;;;;5.93;3.67;;;;;;;-5.81;100.00;93094.06;2090311;28;20152;-82
2022/01/07 04:41:50;;;;;;;5.53;3.28;;;;;;;-5.87;100.00;93100.53;2095598;28;20355;-83
2022/01/07 04:42:51;;;;;;;4.70;3.33;;;;;;;-5.86;100.00;93092.41;2106077;28;20024;-83
2022/01/07 04:43:52;;;;;;;6.38;3.45;;;;;;;-5.91;100.00;93095.19;2097873;28;20024;-83
2022/01/07 04:44:54;;;;;;;5.45;2.72;;;;;;;-5.85;100.00;93103.56;2093761;28;20028;-83
2022/01/07 04:45:55;;;;;;;7.28;3.28;;;;;;;-5.85;100.00;93098.38;2098002;28;20505;-82
2022/01/07 04:46:56;;;;;;;5.88;3.00;;;;;;;-5.80;100.00;93098.19;2098587;28;20028;-82
2022/01/07 04:47:58;;;;;;;4.47;3.17;;;;;;;-5.93;100.00;93102.56;2097725;28;20052;-82
2022/01/07 04:48:59;;;;;;;6.05;3.25;;;;;;;-5.91;100.00;93110.03;2099157;28;20039;-83
2022/01/07 04:50:00;;;;;;;5.53;3.40;;;;;;;-5.88;100.00;93107.59;2099961;28;20036;-82
2022/01/07 04:51:02;;;;;;;5.25;2.85;;;;;;;-5.96;100.00;93103.19;2102685;28;20078;-83